Time;durP1;ratioP1;P1;durP2;ratioP2;P2;SDS_P1;SDS_P2;PMS_P1;PMS_P2;Temp;Humidity;BMP_temperature;BMP_pressure;BME280_temperature;BME280_humidity;BME280_pressure;Samples;Min_cycle;Max_cycle;Signal;HPM_P1;HPM_P2
2024/02/29 00:01:39;;;;;;;4.07;2.97;;;;;;;;;;4989961;28;20030;-70
2024/02/29 00:04:04;;;;;;;4.68;3.15;;;;;;;;;;4997913;28;20034;-71
2024/02/29 00:06:30;;;;;;;3.97;2.72;;;;;;;;;;4990579;28;20421;-70
2024/02/29 00:08:55;;;;;;;4.28;2.97;;;;;;;;;;4998692;28;20101;-68
2024/02/29 00:11:21;;;;;;;3.22;2.45;;;;;;;;;;4989642;28;20038;-69
2024/02/29 00:13:46;;;;;;;4.57;2.83;;;;;;;;;;4998752;28;20089;-71
2024/02/29 00:16:11;;;;;;;4.38;2.95;;;;;;;;;;4975921;28;20058;-69
2024/02/29 00:18:37;;;;;;;4.60;3.05;;;;;;;;;;5000044;28;20038;-69
2024/02/29 00:21:02;;;;;;;4.95;3.15;;;;;;;;;;4997410;28;20042;-69
2024/02/29 00:23:28;;;;;;;4.82;3.45;;;;;;;;;;5012406;28;20087;-69
2024/02/29 00:25:53;;;;;;;4.18;3.05;;;;;;;;;;5003056;28;20490;-72
2024/02/29 00:28:19;;;;;;;3.83;2.70;;;;;;;;;;4989398;28;20027;-71
2024/02/29 00:30:44;;;;;;;4.03;3.22;;;;;;;;;;4997301;28;20533;-71
2024/02/29 00:33:09;;;;;;;5.18;3.10;;;;;;;;;;5006772;28;20061;-71
2024/02/29 00:35:37;;;;;;;3.78;3.05;;;;;;;;;;4987012;28;20042;-70
2024/02/29 00:38:12;;;;;;;5.05;3.25;;;;;;;;;;4981796;28;20030;-69
2024/02/29 00:40:37;;;;;;;4.50;3.20;;;;;;;;;;4994983;28;20146;-71
2024/02/29 00:43:03;;;;;;;3.67;2.97;;;;;;;;;;4997337;28;20129;-70
2024/02/29 00:45:32;;;;;;;4.10;2.90;;;;;;;;;;4991387;28;20101;-71
2024/02/29 00:47:57;;;;;;;3.83;2.90;;;;;;;;;;5016365;28;20033;-71
2024/02/29 00:50:26;;;;;;;4.05;2.75;;;;;;;;;;4996648;28;20034;-68
2024/02/29 00:52:51;;;;;;;4.57;3.42;;;;;;;;;;4989193;28;20042;-71
2024/02/29 00:55:46;;;;;;;4.75;2.80;;;;;;;;;;4981188;28;20524;-72
2024/02/29 00:58:11;;;;;;;4.57;2.65;;;;;;;;;;4979667;28;20054;-71
2024/02/29 01:00:38;;;;;;;4.15;3.00;;;;;;;;;;4993095;28;20062;-71
2024/02/29 01:03:14;;;;;;;4.47;3.13;;;;;;;;;;4982256;28;20035;-70
2024/02/29 01:05:42;;;;;;;3.90;3.08;;;;;;;;;;4999556;28;20528;-68
2024/02/29 01:08:08;;;;;;;4.90;2.95;;;;;;;;;;4996286;28;20525;-71
2024/02/29 01:10:42;;;;;;;4.22;3.20;;;;;;;;;;4976987;28;20063;-69
2024/02/29 01:13:09;;;;;;;4.15;2.80;;;;;;;;;;5002950;28;20349;-72
2024/02/29 01:15:35;;;;;;;4.38;3.00;;;;;;;;;;4992204;28;20313;-72
2024/02/29 01:18:01;;;;;;;4.05;3.00;;;;;;;;;;4985490;28;20117;-71
2024/02/29 01:20:26;;;;;;;4.30;2.88;;;;;;;;;;4984998;28;20547;-71
2024/02/29 01:22:51;;;;;;;5.20;3.05;;;;;;;;;;4999585;28;20053;-72
2024/02/29 01:25:22;;;;;;;4.05;3.00;;;;;;;;;;4998100;28;20042;-68
2024/02/29 01:27:50;;;;;;;4.32;2.95;;;;;;;;;;4996492;28;20058;-71
2024/02/29 01:30:16;;;;;;;5.10;3.10;;;;;;;;;;5006703;28;20042;-71
2024/02/29 01:32:41;;;;;;;4.22;2.95;;;;;;;;;;4990172;28;20083;-71
2024/02/29 01:35:07;;;;;;;4.50;3.42;;;;;;;;;;4987704;28;20034;-71
2024/02/29 01:37:32;;;;;;;3.83;2.95;;;;;;;;;;4981288;28;20506;-72
2024/02/29 01:39:58;;;;;;;5.28;3.22;;;;;;;;;;4981411;28;20453;-69
2024/02/29 01:42:23;;;;;;;4.18;3.00;;;;;;;;;;4972590;28;20033;-71
2024/02/29 01:44:52;;;;;;;4.80;3.20;;;;;;;;;;4961337;28;20027;-70
2024/02/29 01:47:18;;;;;;;5.53;3.10;;;;;;;;;;4989250;28;20018;-71
2024/02/29 01:49:54;;;;;;;3.92;2.92;;;;;;;;;;4981877;28;20287;-71
2024/02/29 01:52:19;;;;;;;5.00;3.20;;;;;;;;;;4994866;28;20080;-71
2024/02/29 01:54:50;;;;;;;4.20;3.20;;;;;;;;;;4986710;28;20559;-70
2024/02/29 01:57:16;;;;;;;4.25;3.10;;;;;;;;;;4981705;28;20038;-70
2024/02/29 01:59:41;;;;;;;4.47;2.92;;;;;;;;;;5003295;28;20046;-72
2024/02/29 02:02:06;;;;;;;3.92;2.80;;;;;;;;;;5020389;28;20038;-71
2024/02/29 02:04:46;;;;;;;5.28;3.00;;;;;;;;;;4990376;28;20570;-72
2024/02/29 02:07:12;;;;;;;7.05;3.95;;;;;;;;;;5007764;28;20034;-71
2024/02/29 02:09:41;;;;;;;3.92;3.17;;;;;;;;;;4993799;28;20050;-71
2024/02/29 02:12:06;;;;;;;5.22;3.30;;;;;;;;;;4997404;28;20110;-72
2024/02/29 02:15:08;;;;;;;;;;;;;;;;;;;;;
2024/02/29 02:17:53;;;;;;;4.13;2.80;;;;;;;;;;4984022;28;20060;-72
2024/02/29 02:20:19;;;;;;;4.00;3.03;;;;;;;;;;4995541;28;20041;-72
2024/02/29 02:22:50;;;;;;;4.68;3.22;;;;;;;;;;4998722;28;20125;-72
2024/02/29 02:25:36;;;;;;;4.57;3.20;;;;;;;;;;4995540;28;20420;-71
2024/02/29 02:28:01;;;;;;;4.35;2.97;;;;;;;;;;5009414;28;20168;-70
2024/02/29 02:30:27;;;;;;;4.20;3.03;;;;;;;;;;4986392;28;20132;-70
2024/02/29 02:32:52;;;;;;;4.65;3.40;;;;;;;;;;4984353;28;20069;-71
2024/02/29 02:35:17;;;;;;;4.57;3.20;;;;;;;;;;4987597;28;20050;-71
2024/02/29 02:37:43;;;;;;;4.03;3.17;;;;;;;;;;5000219;28;20480;-72
2024/02/29 02:40:10;;;;;;;4.93;3.20;;;;;;;;;;4979099;28;20160;-72
2024/02/29 02:42:35;;;;;;;4.75;3.45;;;;;;;;;;4989557;28;20045;-72
2024/02/29 02:45:09;;;;;;;4.30;3.08;;;;;;;;;;4998372;28;20616;-70
2024/02/29 02:47:35;;;;;;;4.55;3.20;;;;;;;;;;4986353;28;20029;-72
2024/02/29 02:50:00;;;;;;;5.03;3.22;;;;;;;;;;4984740;28;20029;-71
2024/02/29 02:52:25;;;;;;;4.22;3.15;;;;;;;;;;4979995;28;20074;-71
2024/02/29 02:54:51;;;;;;;4.90;2.88;;;;;;;;;;4978402;28;20046;-71
2024/02/29 02:57:25;;;;;;;4.63;3.20;;;;;;;;;;5003621;28;20047;-70
2024/02/29 02:59:50;;;;;;;4.72;3.63;;;;;;;;;;4984966;28;20054;-71
2024/02/29 03:02:16;;;;;;;5.30;3.55;;;;;;;;;;4986677;28;20033;-72
2024/02/29 03:04:43;;;;;;;5.03;3.38;;;;;;;;;;4980162;28;20544;-71
2024/02/29 03:07:09;;;;;;;4.50;3.30;;;;;;;;;;5014369;28;20075;-72
2024/02/29 03:09:34;;;;;;;3.67;2.95;;;;;;;;;;4980617;28;20521;-71
2024/02/29 03:12:00;;;;;;;4.15;3.03;;;;;;;;;;4984617;28;20273;-70
2024/02/29 03:14:25;;;;;;;4.07;2.95;;;;;;;;;;4964979;28;20474;-72
2024/02/29 03:16:51;;;;;;;4.43;3.30;;;;;;;;;;4973910;28;20124;-71
2024/02/29 03:19:22;;;;;;;4.68;3.25;;;;;;;;;;4979862;28;20134;-70
2024/02/29 03:21:47;;;;;;;4.18;3.00;;;;;;;;;;4983357;28;20038;-70
2024/02/29 03:24:12;;;;;;;4.38;3.28;;;;;;;;;;4993142;28;20033;-71
2024/02/29 03:26:47;;;;;;;4.85;3.55;;;;;;;;;;4985113;28;20053;-71
2024/02/29 03:29:13;;;;;;;4.32;3.35;;;;;;;;;;5002473;28;20060;-70
2024/02/29 03:31:50;;;;;;;4.47;3.40;;;;;;;;;;4993634;28;20060;-72
2024/02/29 03:34:15;;;;;;;4.20;3.17;;;;;;;;;;4986599;28;20517;-72
2024/02/29 03:36:41;;;;;;;5.07;3.25;;;;;;;;;;4983999;28;20064;-72
2024/02/29 03:39:09;;;;;;;4.82;3.28;;;;;;;;;;4986086;28;20069;-71
2024/02/29 03:41:35;;;;;;;5.25;3.17;;;;;;;;;;4979736;28;20041;-71
2024/02/29 03:44:00;;;;;;;5.10;3.10;;;;;;;;;;4990288;28;20565;-67
2024/02/29 03:46:26;;;;;;;4.72;3.42;;;;;;;;;;4996452;28;20734;-71
2024/02/29 03:48:57;;;;;;;4.78;3.13;;;;;;;;;;4985124;28;20034;-68
2024/02/29 03:51:22;;;;;;;4.45;3.42;;;;;;;;;;4981936;28;20042;-70
2024/02/29 03:53:48;;;;;;;5.15;3.50;;;;;;;;;;4994957;28;20077;-71
2024/02/29 03:56:13;;;;;;;4.38;3.38;;;;;;;;;;4990433;28;20129;-71
2024/02/29 03:58:39;;;;;;;4.88;3.58;;;;;;;;;;4991939;28;20070;-71
2024/02/29 04:01:08;;;;;;;4.00;2.95;;;;;;;;;;4978763;28;20049;-68
2024/02/29 04:03:54;;;;;;;4.72;3.55;;;;;;;;;;4992788;28;20109;-71
2024/02/29 04:06:20;;;;;;;4.97;3.70;;;;;;;;;;4986744;28;20044;-72
2024/02/29 04:08:45;;;;;;;4.40;3.22;;;;;;;;;;4985370;28;20133;-71
2024/02/29 04:11:10;;;;;;;4.38;3.13;;;;;;;;;;4979774;28;20038;-71
2024/02/29 04:13:36;;;;;;;4.00;3.13;;;;;;;;;;4994955;28;21035;-72
2024/02/29 04:16:04;;;;;;;4.78;3.38;;;;;;;;;;4981855;28;20121;-69
2024/02/29 04:18:39;;;;;;;4.47;3.42;;;;;;;;;;5001250;28;20054;-70
2024/02/29 04:21:05;;;;;;;4.80;3.33;;;;;;;;;;5016465;23;20042;-70
2024/02/29 04:23:30;;;;;;;4.18;3.13;;;;;;;;;;4929604;28;20104;-70
2024/02/29 04:25:55;;;;;;;4.75;3.20;;;;;;;;;;4962290;28;20054;-72
2024/02/29 04:28:21;;;;;;;4.63;3.20;;;;;;;;;;4944021;28;20102;-71
2024/02/29 04:30:46;;;;;;;4.88;3.30;;;;;;;;;;4925758;28;20067;-72
2024/02/29 04:33:11;;;;;;;4.03;3.35;;;;;;;;;;4965727;28;20527;-72
2024/02/29 04:35:37;;;;;;;4.50;3.47;;;;;;;;;;4965338;28;20046;-72
2024/02/29 04:38:03;;;;;;;3.53;2.97;;;;;;;;;;4946543;28;20046;-72
2024/02/29 04:40:29;;;;;;;4.10;3.30;;;;;;;;;;4940843;28;20194;-70
2024/02/29 04:42:54;;;;;;;4.68;3.28;;;;;;;;;;4946586;28;20039;-73
2024/02/29 04:45:23;;;;;;;4.55;3.30;;;;;;;;;;4947822;28;20043;-72
2024/02/29 04:47:54;;;;;;;5.22;3.58;;;;;;;;;;4969048;28;20043;-72
2024/02/29 04:50:19;;;;;;;4.90;3.40;;;;;;;;;;4961048;28;20039;-70
2024/02/29 04:52:45;;;;;;;4.40;3.20;;;;;;;;;;4943927;28;20046;-71
2024/02/29 04:55:27;;;;;;;4.40;3.38;;;;;;;;;;4949759;28;20138;-70
2024/02/29 04:57:58;;;;;;;4.32;3.40;;;;;;;;;;4943543;28;20044;-72
2024/02/29 05:00:23;;;;;;;5.70;3.60;;;;;;;;;;4946178;28;20489;-71
2024/02/29 05:02:49;;;;;;;5.68;3.25;;;;;;;;;;4945803;28;20122;-72
2024/02/29 05:05:24;;;;;;;3.83;3.00;;;;;;;;;;4933992;28;20016;-73
2024/02/29 05:07:55;;;;;;;4.25;3.03;;;;;;;;;;4932254;28;20047;-72
2024/02/29 05:10:21;;;;;;;4.57;3.38;;;;;;;;;;4933632;28;20102;-73
2024/02/29 05:12:50;;;;;;;4.47;3.38;;;;;;;;;;4934894;28;20038;-71
2024/02/29 05:15:17;;;;;;;4.45;2.83;;;;;;;;;;4926172;28;20042;-73
2024/02/29 05:17:42;;;;;;;4.20;3.10;;;;;;;;;;4957716;28;20035;-71
2024/02/29 05:20:08;;;;;;;3.72;2.78;;;;;;;;;;4933052;28;20575;-72
2024/02/29 05:22:33;;;;;;;4.15;2.92;;;;;;;;;;4932701;28;20050;-72
2024/02/29 05:24:59;;;;;;;4.88;3.05;;;;;;;;;;4932894;28;20039;-72
2024/02/29 05:27:29;;;;;;;4.43;3.10;;;;;;;;;;4932528;28;20130;-72
2024/02/29 05:29:54;;;;;;;5.35;3.20;;;;;;;;;;4932590;28;20036;-71
2024/02/29 05:32:20;;;;;;;5.60;3.38;;;;;;;;;;4932351;28;20034;-72
2024/02/29 05:34:45;;;;;;;5.97;3.42;;;;;;;;;;4932070;28;20485;-71
2024/02/29 05:37:11;;;;;;;4.68;3.10;;;;;;;;;;4933094;28;20501;-72
2024/02/29 05:39:37;;;;;;;4.88;3.20;;;;;;;;;;4932279;28;20039;-71
2024/02/29 05:42:02;;;;;;;6.00;3.30;;;;;;;;;;4933917;28;20032;-71
2024/02/29 05:44:29;;;;;;;4.47;3.30;;;;;;;;;;4932100;28;20473;-70
2024/02/29 05:46:56;;;;;;;5.15;3.35;;;;;;;;;;4930828;28;20151;-74
2024/02/29 05:49:22;;;;;;;4.65;3.20;;;;;;;;;;4932486;28;20047;-74
2024/02/29 05:51:47;;;;;;;4.18;2.80;;;;;;;;;;4934545;28;20048;-71
2024/02/29 05:54:12;;;;;;;4.15;3.00;;;;;;;;;;4932793;28;20050;-74
2024/02/29 05:56:38;;;;;;;3.75;3.05;;;;;;;;;;4933566;28;20510;-73
2024/02/29 05:59:04;;;;;;;4.82;2.97;;;;;;;;;;4917917;28;20074;-68
2024/02/29 06:01:58;;;;;;;4.45;2.88;;;;;;;;;;4933205;28;20054;-72
2024/02/29 06:04:24;;;;;;;3.67;2.83;;;;;;;;;;4932511;28;20071;-70
2024/02/29 06:07:12;;;;;;;4.35;2.72;;;;;;;;;;4932834;28;20039;-74
2024/02/29 06:09:38;;;;;;;3.70;3.13;;;;;;;;;;4923478;28;20130;-71
2024/02/29 06:12:04;;;;;;;4.30;3.22;;;;;;;;;;4931018;28;20032;-69
2024/02/29 06:14:29;;;;;;;3.58;2.80;;;;;;;;;;4931097;28;20039;-68
2024/02/29 06:16:54;;;;;;;4.10;3.05;;;;;;;;;;4930136;28;20039;-67
2024/02/29 06:19:20;;;;;;;4.18;3.10;;;;;;;;;;4932152;28;20041;-68
2024/02/29 06:21:45;;;;;;;4.18;2.80;;;;;;;;;;4931052;28;20047;-68
2024/02/29 06:24:10;;;;;;;4.75;3.45;;;;;;;;;;4931780;28;20050;-69
2024/02/29 06:26:36;;;;;;;4.20;3.20;;;;;;;;;;4931445;28;20099;-68
2024/02/29 06:29:01;;;;;;;4.07;3.03;;;;;;;;;;4931694;28;20421;-68
2024/02/29 06:31:27;;;;;;;3.88;2.90;;;;;;;;;;4930821;28;20228;-69
2024/02/29 06:33:52;;;;;;;4.50;3.03;;;;;;;;;;4931161;28;20059;-70
2024/02/29 06:36:17;;;;;;;3.90;2.92;;;;;;;;;;4963127;28;20130;-69
2024/02/29 06:38:43;;;;;;;4.82;3.00;;;;;;;;;;4931619;28;20036;-71
2024/02/29 06:41:11;;;;;;;4.68;3.10;;;;;;;;;;4929940;28;20051;-69
2024/02/29 06:43:36;;;;;;;4.20;2.80;;;;;;;;;;4930506;28;20126;-67
2024/02/29 06:46:06;;;;;;;4.40;3.00;;;;;;;;;;4928702;28;20097;-69
2024/02/29 06:48:32;;;;;;;3.75;3.13;;;;;;;;;;4929576;28;20076;-69
2024/02/29 06:50:57;;;;;;;3.75;2.80;;;;;;;;;;4930574;28;20039;-70
2024/02/29 06:53:22;;;;;;;3.70;2.83;;;;;;;;;;4929655;28;20570;-70
2024/02/29 06:55:48;;;;;;;4.97;3.20;;;;;;;;;;4930255;28;20059;-69
2024/02/29 06:58:13;;;;;;;3.97;3.17;;;;;;;;;;4930286;28;20074;-69
2024/02/29 07:00:39;;;;;;;4.07;2.90;;;;;;;;;;4931081;28;20043;-70
2024/02/29 07:03:04;;;;;;;3.90;3.13;;;;;;;;;;4932071;28;20038;-70
2024/02/29 07:05:30;;;;;;;4.22;3.30;;;;;;;;;;4930860;28;20051;-69
2024/02/29 07:07:55;;;;;;;3.65;2.95;;;;;;;;;;4929405;28;20101;-70
2024/02/29 07:10:21;;;;;;;4.07;3.15;;;;;;;;;;4929369;28;20047;-68
2024/02/29 07:12:46;;;;;;;5.18;3.17;;;;;;;;;;4931304;28;20035;-68
2024/02/29 07:15:12;;;;;;;4.38;3.47;;;;;;;;;;4931265;28;20031;-69
2024/02/29 07:17:38;;;;;;;4.10;3.30;;;;;;;;;;4929842;28;20122;-69
2024/02/29 07:20:04;;;;;;;4.72;3.03;;;;;;;;;;4931801;28;20035;-68
2024/02/29 07:22:29;;;;;;;4.07;2.95;;;;;;;;;;4929879;28;20071;-69
2024/02/29 07:24:55;;;;;;;4.20;3.00;;;;;;;;;;4930876;28;20043;-69
2024/02/29 07:27:20;;;;;;;4.38;3.30;;;;;;;;;;4930992;28;20126;-71
2024/02/29 07:29:45;;;;;;;4.47;3.22;;;;;;;;;;4930610;28;20038;-69
2024/02/29 07:32:11;;;;;;;8.40;3.28;;;;;;;;;;4929951;28;20043;-68
2024/02/29 07:34:36;;;;;;;4.68;3.17;;;;;;;;;;4935528;28;20046;-69
2024/02/29 07:37:02;;;;;;;3.92;2.88;;;;;;;;;;4941068;28;20047;-69
2024/02/29 07:39:28;;;;;;;4.15;3.20;;;;;;;;;;4942216;28;20108;-67
2024/02/29 07:41:53;;;;;;;4.22;3.08;;;;;;;;;;4942555;28;20169;-67
2024/02/29 07:44:19;;;;;;;4.38;3.20;;;;;;;;;;4942190;28;20035;-67
2024/02/29 07:46:44;;;;;;;4.70;3.33;;;;;;;;;;4935786;28;20050;-69
2024/02/29 07:49:10;;;;;;;4.90;2.78;;;;;;;;;;4934893;28;20042;-70
2024/02/29 07:51:35;;;;;;;5.25;3.15;;;;;;;;;;4932376;28;20048;-72
2024/02/29 07:54:01;;;;;;;3.97;3.05;;;;;;;;;;4937752;28;20109;-68
2024/02/29 07:56:26;;;;;;;3.88;3.00;;;;;;;;;;4934036;28;20785;-71
2024/02/29 07:58:52;;;;;;;4.95;3.10;;;;;;;;;;4933121;28;20073;-68
2024/02/29 08:01:18;;;;;;;3.90;3.20;;;;;;;;;;4931040;28;20473;-68
2024/02/29 08:03:44;;;;;;;4.95;3.28;;;;;;;;;;4930844;28;20043;-69
2024/02/29 08:06:09;;;;;;;5.45;3.40;;;;;;;;;;4933198;28;20035;-66
2024/02/29 08:08:35;;;;;;;5.30;3.20;;;;;;;;;;4937503;28;20043;-67
2024/02/29 08:11:06;;;;;;;5.13;2.80;;;;;;;;;;4948991;28;21441;-67
2024/02/29 08:13:41;;;;;;;6.10;3.50;;;;;;;;;;4932647;28;20394;-68
2024/02/29 08:16:10;;;;;;;5.15;3.13;;;;;;;;;;4937465;28;20035;-69
2024/02/29 08:18:38;;;;;;;3.92;2.92;;;;;;;;;;4924032;28;20059;-69
2024/02/29 08:21:03;;;;;;;4.53;3.00;;;;;;;;;;4930067;28;20023;-68
2024/02/29 08:23:29;;;;;;;5.60;2.92;;;;;;;;;;4942419;23;20490;-69
2024/02/29 08:25:54;;;;;;;4.00;3.20;;;;;;;;;;4972760;28;20072;-69
2024/02/29 08:28:20;;;;;;;3.83;2.88;;;;;;;;;;4997416;28;20021;-70
2024/02/29 08:30:45;;;;;;;5.90;3.40;;;;;;;;;;4995268;28;20109;-68
2024/02/29 08:33:10;;;;;;;4.60;3.22;;;;;;;;;;5005423;28;20036;-68
2024/02/29 08:35:36;;;;;;;4.13;2.97;;;;;;;;;;4999390;28;20037;-70
2024/02/29 08:38:04;;;;;;;5.82;3.22;;;;;;;;;;4995696;28;20116;-73
2024/02/29 08:40:29;;;;;;;4.32;3.10;;;;;;;;;;4995241;28;20041;-69
2024/02/29 08:42:55;;;;;;;4.57;3.30;;;;;;;;;;4990698;28;20049;-70
2024/02/29 08:45:20;;;;;;;4.28;3.22;;;;;;;;;;4997544;28;20755;-70
2024/02/29 08:47:45;;;;;;;4.55;3.40;;;;;;;;;;4997016;28;20163;-69
2024/02/29 08:50:11;;;;;;;4.22;2.95;;;;;;;;;;4998375;28;20018;-67
2024/02/29 08:52:38;;;;;;;4.43;3.10;;;;;;;;;;4999086;28;20026;-67
2024/02/29 08:55:03;;;;;;;5.40;3.60;;;;;;;;;;4997930;28;20038;-71
2024/02/29 08:57:29;;;;;;;4.53;3.42;;;;;;;;;;4998695;28;20123;-70
2024/02/29 08:59:54;;;;;;;4.38;3.05;;;;;;;;;;4999606;28;20026;-71
2024/02/29 09:02:19;;;;;;;4.93;3.33;;;;;;;;;;5002269;28;20049;-69
2024/02/29 09:04:45;;;;;;;4.70;3.30;;;;;;;;;;5005453;28;20107;-70
2024/02/29 09:07:10;;;;;;;3.85;3.00;;;;;;;;;;4993381;28;20165;-71
2024/02/29 09:09:36;;;;;;;4.72;3.33;;;;;;;;;;5004027;28;20067;-72
2024/02/29 09:12:06;;;;;;;4.35;3.00;;;;;;;;;;5003175;28;20033;-72
2024/02/29 09:14:31;;;;;;;5.80;3.42;;;;;;;;;;5005249;28;20041;-71
2024/02/29 09:16:56;;;;;;;5.50;3.40;;;;;;;;;;5009455;28;20033;-71
2024/02/29 09:19:22;;;;;;;4.97;3.30;;;;;;;;;;5004788;28;20092;-71
2024/02/29 09:21:47;;;;;;;4.07;3.10;;;;;;;;;;4990545;28;20795;-70
2024/02/29 09:24:13;;;;;;;5.88;3.30;;;;;;;;;;4989238;28;20046;-72
2024/02/29 09:26:38;;;;;;;4.88;3.25;;;;;;;;;;5005321;28;20451;-70
2024/02/29 09:29:03;;;;;;;5.35;3.50;;;;;;;;;;5003686;28;20033;-70
2024/02/29 09:31:28;;;;;;;4.40;3.40;;;;;;;;;;5003494;28;20033;-70
2024/02/29 09:33:54;;;;;;;5.35;3.70;;;;;;;;;;5002882;28;20038;-73
2024/02/29 09:36:20;;;;;;;4.63;3.30;;;;;;;;;;5009421;28;20734;-70
2024/02/29 09:38:45;;;;;;;6.00;3.72;;;;;;;;;;5004702;28;20108;-71
2024/02/29 09:41:11;;;;;;;5.25;3.53;;;;;;;;;;4981518;28;20026;-70
2024/02/29 09:43:45;;;;;;;5.03;3.45;;;;;;;;;;5004686;28;20034;-68
2024/02/29 09:46:10;;;;;;;4.38;3.13;;;;;;;;;;5003264;28;20038;-73
2024/02/29 09:48:39;;;;;;;6.35;3.90;;;;;;;;;;5003144;28;20040;-68
2024/02/29 09:51:05;;;;;;;6.45;3.55;;;;;;;;;;4993940;28;20046;-72
2024/02/29 09:53:34;;;;;;;5.38;3.60;;;;;;;;;;4989121;28;20045;-71
2024/02/29 09:55:59;;;;;;;6.20;3.72;;;;;;;;;;4990294;28;20062;-70
2024/02/29 09:58:25;;;;;;;6.25;4.15;;;;;;;;;;4990667;28;20097;-70
2024/02/29 10:00:50;;;;;;;15.15;7.28;;;;;;;;;;4993557;28;20113;-67
2024/02/29 10:03:16;;;;;;;11.55;7.65;;;;;;;;;;4996084;28;20480;-70
2024/02/29 10:05:45;;;;;;;14.25;7.60;;;;;;;;;;4996918;28;20034;-67
2024/02/29 10:08:10;;;;;;;13.05;8.50;;;;;;;;;;4989962;28;20192;-68
2024/02/29 10:10:36;;;;;;;13.40;8.90;;;;;;;;;;4997035;28;20124;-67
2024/02/29 10:13:01;;;;;;;15.00;9.23;;;;;;;;;;4997181;28;20558;-68
2024/02/29 10:15:27;;;;;;;14.88;8.65;;;;;;;;;;4997517;28;20148;-69
2024/02/29 10:17:54;;;;;;;15.10;8.30;;;;;;;;;;4997394;28;20049;-70
2024/02/29 10:20:21;;;;;;;12.23;7.63;;;;;;;;;;4996993;28;20033;-69
2024/02/29 10:22:46;;;;;;;16.33;6.90;;;;;;;;;;4998532;28;20041;-68
2024/02/29 10:25:13;;;;;;;10.82;5.93;;;;;;;;;;4997856;28;20041;-69
2024/02/29 10:27:38;;;;;;;9.13;5.50;;;;;;;;;;4991899;28;20049;-68
2024/02/29 10:30:16;;;;;;;9.70;6.07;;;;;;;;;;4998307;28;20030;-69
2024/02/29 10:32:42;;;;;;;7.32;5.07;;;;;;;;;;4989617;28;20802;-72
2024/02/29 10:35:18;;;;;;;8.38;5.63;;;;;;;;;;4997794;28;20038;-70
2024/02/29 10:37:44;;;;;;;8.02;5.13;;;;;;;;;;4995454;28;20847;-77
2024/02/29 10:40:09;;;;;;;7.43;5.00;;;;;;;;;;4997398;28;20095;-74
2024/02/29 10:42:35;;;;;;;6.95;4.70;;;;;;;;;;4995553;28;20022;-74
2024/02/29 10:45:00;;;;;;;8.88;5.43;;;;;;;;;;4997518;28;20081;-70
2024/02/29 10:47:26;;;;;;;7.20;5.35;;;;;;;;;;4996103;28;22095;-71
2024/02/29 10:49:51;;;;;;;7.90;5.10;;;;;;;;;;4995020;28;20030;-72
2024/02/29 10:52:21;;;;;;;6.28;4.88;;;;;;;;;;4980059;28;20037;-68
2024/02/29 10:55:13;;;;;;;6.63;4.93;;;;;;;;;;4992184;28;20051;-74
2024/02/29 10:57:51;;;;;;;7.93;5.32;;;;;;;;;;4996702;23;20509;-69
2024/02/29 11:00:16;;;;;;;6.85;4.80;;;;;;;;;;4984586;28;20755;-69
2024/02/29 11:02:43;;;;;;;6.40;4.72;;;;;;;;;;4972240;28;20037;-69
2024/02/29 11:05:08;;;;;;;9.23;4.60;;;;;;;;;;4973436;28;20761;-73
2024/02/29 11:07:57;;;;;;;7.28;4.70;;;;;;;;;;4984120;28;20044;-72
2024/02/29 11:10:28;;;;;;;7.53;4.55;;;;;;;;;;4966946;28;20061;-72
2024/02/29 11:12:56;;;;;;;10.68;5.47;;;;;;;;;;4969554;28;20034;-73
2024/02/29 11:15:25;;;;;;;7.00;4.65;;;;;;;;;;4983517;28;20049;-72
2024/02/29 11:17:50;;;;;;;7.25;4.75;;;;;;;;;;4983253;28;20076;-73
2024/02/29 11:20:19;;;;;;;6.68;4.65;;;;;;;;;;4985550;28;20058;-75
2024/02/29 11:22:45;;;;;;;8.13;4.90;;;;;;;;;;4986255;28;20046;-75
2024/02/29 11:25:10;;;;;;;6.90;4.80;;;;;;;;;;4985171;28;20072;-68
2024/02/29 11:27:36;;;;;;;7.90;4.70;;;;;;;;;;4982518;28;20149;-74
2024/02/29 11:30:01;;;;;;;7.00;4.53;;;;;;;;;;4986236;28;20114;-71
2024/02/29 11:32:29;;;;;;;7.07;4.70;;;;;;;;;;4987289;28;20030;-68
2024/02/29 11:34:55;;;;;;;7.30;4.88;;;;;;;;;;4985575;28;20059;-79
2024/02/29 11:37:20;;;;;;;6.53;4.72;;;;;;;;;;4983439;28;20112;-68
2024/02/29 11:39:45;;;;;;;6.38;4.22;;;;;;;;;;4988733;28;20121;-76
2024/02/29 11:42:10;;;;;;;7.57;4.38;;;;;;;;;;4981397;28;20030;-75
2024/02/29 11:44:36;;;;;;;6.13;4.25;;;;;;;;;;4992803;28;20058;-74
2024/02/29 11:47:02;;;;;;;5.50;4.50;;;;;;;;;;4992058;28;20190;-74
2024/02/29 11:49:27;;;;;;;6.82;4.38;;;;;;;;;;4990543;28;20531;-77
2024/02/29 11:51:53;;;;;;;6.88;4.75;;;;;;;;;;4974425;28;20140;-73
2024/02/29 11:54:19;;;;;;;5.82;4.35;;;;;;;;;;4986181;28;20048;-74
2024/02/29 11:56:44;;;;;;;6.55;4.70;;;;;;;;;;4984725;28;20034;-73
2024/02/29 11:59:10;;;;;;;6.97;4.38;;;;;;;;;;4995224;28;20500;-74
2024/02/29 12:01:46;;;;;;;6.32;4.50;;;;;;;;;;4984543;28;20507;-76
2024/02/29 12:04:12;;;;;;;6.45;4.50;;;;;;;;;;4966595;28;20212;-77
2024/02/29 12:06:47;;;;;;;6.53;4.30;;;;;;;;;;5008046;28;20066;-77
2024/02/29 12:09:23;;;;;;;6.82;4.35;;;;;;;;;;4973500;28;20038;-73
2024/02/29 12:12:10;;;;;;;5.50;4.00;;;;;;;;;;4979730;28;20103;-73
2024/02/29 12:14:35;;;;;;;6.13;4.75;;;;;;;;;;4977011;28;20065;-72
2024/02/29 12:17:01;;;;;;;5.80;4.38;;;;;;;;;;4991701;28;20034;-73
2024/02/29 12:19:26;;;;;;;5.85;4.28;;;;;;;;;;4978477;28;20569;-76
2024/02/29 12:21:54;;;;;;;6.15;4.43;;;;;;;;;;4993469;28;20525;-74
2024/02/29 12:24:34;;;;;;;6.25;4.28;;;;;;;;;;4993932;28;20038;-75
2024/02/29 12:26:59;;;;;;;7.05;4.47;;;;;;;;;;4972054;28;20078;-76
2024/02/29 12:29:38;;;;;;;7.15;4.55;;;;;;;;;;4991587;23;20671;-76
2024/02/29 12:32:04;;;;;;;5.40;4.18;;;;;;;;;;4962433;28;20083;-74
2024/02/29 12:34:29;;;;;;;7.38;4.70;;;;;;;;;;4964952;28;20165;-76
2024/02/29 12:36:55;;;;;;;5.82;4.00;;;;;;;;;;4965345;28;20088;-74
2024/02/29 12:39:21;;;;;;;7.43;4.22;;;;;;;;;;4961977;28;20038;-71
2024/02/29 12:41:46;;;;;;;6.18;4.40;;;;;;;;;;4960222;28;20038;-70
2024/02/29 12:44:12;;;;;;;5.47;4.10;;;;;;;;;;4958201;28;20418;-71
2024/02/29 12:46:38;;;;;;;7.07;4.47;;;;;;;;;;4947971;28;20045;-74
2024/02/29 12:49:03;;;;;;;5.15;3.90;;;;;;;;;;4958476;28;20125;-72
2024/02/29 12:51:29;;;;;;;5.28;4.07;;;;;;;;;;4958587;28;20048;-71
2024/02/29 12:53:54;;;;;;;6.57;4.65;;;;;;;;;;4962214;28;20047;-75
2024/02/29 12:56:19;;;;;;;10.27;6.72;;;;;;;;;;4958060;28;20698;-69
2024/02/29 12:58:46;;;;;;;9.48;5.63;;;;;;;;;;4957700;28;20040;-69
2024/02/29 13:01:12;;;;;;;6.38;4.65;;;;;;;;;;4962080;28;20042;-74
2024/02/29 13:03:40;;;;;;;7.10;5.05;;;;;;;;;;4961145;28;20038;-77
2024/02/29 13:06:05;;;;;;;6.97;4.80;;;;;;;;;;4959400;28;20031;-77
2024/02/29 13:08:49;;;;;;;9.57;5.18;;;;;;;;;;4961074;28;20561;-78
2024/02/29 13:11:34;;;;;;;6.35;4.63;;;;;;;;;;4963124;28;20043;-76
2024/02/29 13:14:22;;;;;;;6.35;4.72;;;;;;;;;;4975988;23;20041;-74
2024/02/29 13:16:47;;;;;;;7.10;4.97;;;;;;;;;;4986159;23;20046;-76
2024/02/29 13:19:14;;;;;;;8.23;5.10;;;;;;;;;;4981112;28;20058;-77
2024/02/29 13:21:40;;;;;;;7.20;5.55;;;;;;;;;;4961548;28;20090;-76
2024/02/29 13:24:05;;;;;;;9.25;5.63;;;;;;;;;;4969763;28;20034;-79
2024/02/29 13:26:31;;;;;;;9.27;5.72;;;;;;;;;;4947679;28;20031;-76
2024/02/29 13:28:56;;;;;;;7.00;5.47;;;;;;;;;;4963882;28;20910;-76
2024/02/29 13:31:22;;;;;;;7.65;5.10;;;;;;;;;;4962469;28;20118;-76
2024/02/29 13:33:47;;;;;;;9.25;5.30;;;;;;;;;;4961609;28;20629;-76
2024/02/29 13:36:13;;;;;;;7.30;5.70;;;;;;;;;;4963085;28;20099;-76
2024/02/29 13:38:38;;;;;;;7.85;5.60;;;;;;;;;;4958098;28;20038;-76
2024/02/29 13:41:04;;;;;;;8.32;5.40;;;;;;;;;;4946289;28;20046;-77
2024/02/29 13:43:30;;;;;;;9.15;5.45;;;;;;;;;;4966563;28;20062;-76
2024/02/29 13:45:55;;;;;;;8.25;5.97;;;;;;;;;;4963118;28;20508;-76
2024/02/29 13:48:21;;;;;;;7.78;5.25;;;;;;;;;;4963476;28;20540;-76
2024/02/29 13:50:46;;;;;;;9.00;5.85;;;;;;;;;;4960688;28;20454;-77
2024/02/29 13:53:11;;;;;;;9.02;5.85;;;;;;;;;;4940972;28;20062;-76
2024/02/29 13:55:37;;;;;;;9.50;6.03;;;;;;;;;;4959346;28;20054;-76
2024/02/29 13:58:03;;;;;;;7.63;5.85;;;;;;;;;;4961967;28;20039;-76
2024/02/29 14:00:29;;;;;;;7.70;5.82;;;;;;;;;;4964467;28;20057;-76
2024/02/29 14:02:54;;;;;;;7.68;5.78;;;;;;;;;;4976904;28;20031;-73
2024/02/29 14:05:20;;;;;;;13.55;7.85;;;;;;;;;;4966155;28;20035;-82
2024/02/29 14:07:45;;;;;;;7.72;5.90;;;;;;;;;;4941105;28;20035;-83
2024/02/29 14:10:10;;;;;;;9.35;5.78;;;;;;;;;;4961950;28;20050;-79
2024/02/29 14:12:37;;;;;;;9.10;5.90;;;;;;;;;;4962303;28;20055;-76
2024/02/29 14:15:03;;;;;;;9.38;5.90;;;;;;;;;;4964100;28;20078;-78
2024/02/29 14:17:28;;;;;;;8.73;5.65;;;;;;;;;;4959443;28;20042;-76
2024/02/29 14:19:54;;;;;;;6.93;5.15;;;;;;;;;;4947703;28;20035;-78
2024/02/29 14:22:19;;;;;;;7.97;5.75;;;;;;;;;;4960498;28;20046;-81
2024/02/29 14:24:44;;;;;;;7.00;5.50;;;;;;;;;;4948852;28;20035;-80
2024/02/29 14:27:12;;;;;;;7.78;5.28;;;;;;;;;;4962776;28;20042;-80
2024/02/29 14:29:37;;;;;;;6.88;5.47;;;;;;;;;;4961380;28;20461;-77
2024/02/29 14:32:03;;;;;;;8.10;5.80;;;;;;;;;;4978850;28;20062;-77
2024/02/29 14:34:28;;;;;;;6.30;5.20;;;;;;;;;;4976635;28;20054;-77
2024/02/29 14:36:54;;;;;;;7.43;5.72;;;;;;;;;;4974396;28;20053;-77
2024/02/29 14:39:19;;;;;;;8.40;5.60;;;;;;;;;;4969174;28;20043;-77
2024/02/29 14:41:45;;;;;;;8.10;4.93;;;;;;;;;;4982749;28;20069;-76
2024/02/29 14:44:10;;;;;;;7.85;5.28;;;;;;;;;;4970680;28;20033;-76